createdAt,value
2023-05-09T00:00:25.481Z,17.20
2023-05-09T00:02:54.237Z,17.20
2023-05-09T00:05:22.555Z,17.20
2023-05-09T00:07:50.639Z,17.20
2023-05-09T00:10:20.035Z,17.20
2023-05-09T00:12:49.517Z,17.20
2023-05-09T00:15:17.851Z,17.10
2023-05-09T00:17:46.501Z,17.20
2023-05-09T00:20:14.789Z,17.20
2023-05-09T00:22:44.200Z,17.20
2023-05-09T00:25:13.289Z,17.20
2023-05-09T00:27:42.856Z,17.20
2023-05-09T00:30:11.186Z,17.20
2023-05-09T00:32:40.463Z,17.20
2023-05-09T00:35:10.499Z,17.20
2023-05-09T00:37:38.892Z,17.20
2023-05-09T00:40:09.662Z,17.20
2023-05-09T00:42:38.290Z,17.20
2023-05-09T00:45:09.227Z,17.20
2023-05-09T00:47:37.305Z,17.20
2023-05-09T00:50:06.420Z,17.20
2023-05-09T00:52:35.079Z,17.20
2023-05-09T00:55:04.521Z,17.20
2023-05-09T00:57:32.541Z,17.30
2023-05-09T01:00:01.451Z,17.30
2023-05-09T01:02:31.596Z,17.20
2023-05-09T01:04:59.908Z,17.20
2023-05-09T01:07:36.568Z,17.20
2023-05-09T01:10:11.172Z,17.20
2023-05-09T01:12:48.672Z,17.20
2023-05-09T01:15:24.689Z,17.20
2023-05-09T01:18:00.712Z,17.20
2023-05-09T01:20:34.959Z,17.20
2023-05-09T01:23:15.864Z,17.20
2023-05-09T01:25:56.134Z,17.20
2023-05-09T01:28:45.737Z,17.20
2023-05-09T01:31:18.644Z,17.10
2023-05-09T01:33:52.971Z,17.10
2023-05-09T01:36:22.741Z,17.10
2023-05-09T01:38:53.945Z,17.10
2023-05-09T01:41:44.266Z,17.10
2023-05-09T01:44:14.543Z,17.10
2023-05-09T01:46:45.919Z,17.10
2023-05-09T01:49:15.633Z,17.10
2023-05-09T01:51:45.550Z,17.00
2023-05-09T01:54:17.639Z,17.00
2023-05-09T01:56:48.360Z,17.00
2023-05-09T01:59:17.088Z,17.00
2023-05-09T02:01:49.500Z,17.00
2023-05-09T02:04:21.025Z,17.00
2023-05-09T02:06:52.321Z,17.00
2023-05-09T02:09:21.616Z,17.00
2023-05-09T02:11:54.931Z,17.00
2023-05-09T02:14:24.229Z,17.00
2023-05-09T02:16:55.191Z,17.00
2023-05-09T02:19:23.212Z,17.00
2023-05-09T02:21:51.318Z,17.00
2023-05-09T02:24:19.416Z,17.00
2023-05-09T02:26:47.629Z,17.00
2023-05-09T02:29:18.298Z,17.00
2023-05-09T02:31:50.533Z,17.00
2023-05-09T02:34:20.834Z,17.00
2023-05-09T02:36:48.864Z,17.00
2023-05-09T02:39:17.239Z,17.00
2023-05-09T02:41:49.696Z,17.00
2023-05-09T02:44:21.466Z,17.00
2023-05-09T02:46:49.510Z,17.00
2023-05-09T02:49:40.510Z,17.00
2023-05-09T02:52:09.576Z,17.00
2023-05-09T02:54:37.920Z,17.00
2023-05-09T02:57:06.159Z,16.90
2023-05-09T02:59:37.357Z,16.90
2023-05-09T03:02:05.393Z,16.90
2023-05-09T03:04:33.760Z,16.90
2023-05-09T03:07:03.597Z,16.90
2023-05-09T03:09:32.687Z,16.90
2023-05-09T03:12:00.694Z,16.90
2023-05-09T03:14:29.355Z,16.90
2023-05-09T03:16:58.357Z,16.90
2023-05-09T03:19:46.889Z,16.90
2023-05-09T03:22:17.051Z,16.90
2023-05-09T03:25:06.454Z,16.90
2023-05-09T03:27:34.782Z,16.90
2023-05-09T03:30:03.151Z,16.90
2023-05-09T03:32:31.953Z,16.90
2023-05-09T03:35:00.661Z,16.90
2023-05-09T03:37:32.286Z,16.90
2023-05-09T03:40:01.605Z,16.90
2023-05-09T03:42:29.994Z,16.90
2023-05-09T03:44:58.009Z,16.90
2023-05-09T03:47:27.665Z,16.90
2023-05-09T03:50:15.828Z,16.90
2023-05-09T03:52:45.377Z,16.90
2023-05-09T03:55:13.627Z,16.90
2023-05-09T03:57:42.251Z,16.90
2023-05-09T04:00:11.126Z,16.90
2023-05-09T04:02:40.592Z,16.90
2023-05-09T04:05:09.902Z,16.90
2023-05-09T04:07:38.242Z,16.90
2023-05-09T04:10:09.263Z,16.90
2023-05-09T04:12:39.487Z,17.00
2023-05-09T04:15:09.264Z,16.90
2023-05-09T04:17:37.444Z,16.90
2023-05-09T04:20:08.004Z,16.90
2023-05-09T04:22:36.264Z,16.90
2023-05-09T04:25:05.081Z,16.90
2023-05-09T04:27:54.949Z,17.00
2023-05-09T04:30:43.228Z,16.90
2023-05-09T04:33:31.168Z,16.90
2023-05-09T04:35:59.759Z,16.90
2023-05-09T04:38:28.654Z,16.90
2023-05-09T04:40:57.050Z,16.90
2023-05-09T04:43:28.247Z,16.90
2023-05-09T04:45:56.601Z,16.80
2023-05-09T04:48:26.091Z,16.80
2023-05-09T04:50:54.122Z,16.80
2023-05-09T04:53:22.784Z,16.80
2023-05-09T04:55:51.934Z,16.80
2023-05-09T04:58:20.034Z,16.80
2023-05-09T05:00:50.148Z,16.80
2023-05-09T05:03:18.202Z,16.80
2023-05-09T05:05:46.512Z,16.80
2023-05-09T05:08:14.651Z,16.80
2023-05-09T05:10:42.680Z,16.80
2023-05-09T05:13:10.697Z,16.80
2023-05-09T05:15:38.676Z,16.80
2023-05-09T05:18:08.202Z,16.70
2023-05-09T05:20:36.225Z,16.70
2023-05-09T05:23:04.225Z,16.70
2023-05-09T05:25:32.299Z,16.70
2023-05-09T05:28:00.328Z,16.70
2023-05-09T05:30:28.311Z,16.70
2023-05-09T05:32:56.305Z,16.70
2023-05-09T05:35:27.001Z,16.70
2023-05-09T05:37:55.017Z,16.70
2023-05-09T05:40:22.986Z,16.60
2023-05-09T05:42:51.124Z,16.50
2023-05-09T05:45:19.222Z,16.50
2023-05-09T05:47:47.212Z,16.50
2023-05-09T05:50:15.897Z,16.50
2023-05-09T05:52:46.206Z,16.50
2023-05-09T05:55:14.609Z,16.50
2023-05-09T05:57:42.828Z,16.50
2023-05-09T06:00:11.964Z,16.50
2023-05-09T06:02:41.206Z,16.50
2023-05-09T06:05:10.293Z,16.40
2023-05-09T06:07:38.319Z,16.40
2023-05-09T06:10:09.196Z,16.40
2023-05-09T06:12:39.335Z,16.40
2023-05-09T06:15:08.673Z,16.40
2023-05-09T06:17:37.083Z,16.40
2023-05-09T06:20:05.819Z,16.40
2023-05-09T06:22:33.783Z,16.40
2023-05-09T06:25:01.784Z,16.40
2023-05-09T06:27:31.230Z,16.50
2023-05-09T06:29:59.752Z,16.40
2023-05-09T06:32:28.268Z,16.40
2023-05-09T06:34:56.237Z,16.40
2023-05-09T06:37:24.282Z,16.50
2023-05-09T06:39:52.222Z,16.40
2023-05-09T06:42:20.324Z,16.40
2023-05-09T06:44:49.871Z,16.50
2023-05-09T06:47:17.859Z,16.40
2023-05-09T06:49:45.831Z,16.40
2023-05-09T06:52:15.742Z,16.40
2023-05-09T06:54:43.797Z,16.30
2023-05-09T06:57:11.980Z,16.30
2023-05-09T06:59:40.216Z,16.30
2023-05-09T07:02:09.579Z,16.30
2023-05-09T07:04:37.591Z,16.30
2023-05-09T07:07:05.998Z,16.30
2023-05-09T07:09:34.006Z,16.30
2023-05-09T07:12:02.756Z,16.20
2023-05-09T07:14:30.819Z,16.30
2023-05-09T07:17:13.643Z,16.20
2023-05-09T07:19:48.549Z,16.20
2023-05-09T07:22:16.543Z,16.20
2023-05-09T07:24:46.331Z,16.20
2023-05-09T07:27:14.448Z,16.20
2023-05-09T07:29:42.619Z,16.20
2023-05-09T07:32:11.890Z,16.20
2023-05-09T07:34:40.027Z,16.20
2023-05-09T07:37:09.401Z,16.20
2023-05-09T07:39:38.582Z,16.20
2023-05-09T07:42:06.557Z,16.20
2023-05-09T07:44:34.476Z,16.30
2023-05-09T07:47:02.640Z,16.30
2023-05-09T07:49:30.655Z,16.30
2023-05-09T07:51:58.729Z,16.30
2023-05-09T07:54:28.285Z,16.30
2023-05-09T07:56:56.183Z,16.30
2023-05-09T07:59:24.116Z,16.30
2023-05-09T08:01:52.079Z,16.30
2023-05-09T08:04:20.069Z,16.30
2023-05-09T08:06:48.909Z,16.40
2023-05-09T08:09:17.025Z,16.30
2023-05-09T08:11:46.432Z,16.40
2023-05-09T08:14:15.632Z,16.40
2023-05-09T08:16:44.315Z,16.40
2023-05-09T08:19:12.210Z,16.40
2023-05-09T08:21:40.251Z,16.40
2023-05-09T08:24:09.830Z,16.40
2023-05-09T08:26:37.867Z,16.40
2023-05-09T08:29:07.358Z,16.40
2023-05-09T08:31:35.498Z,16.40
2023-05-09T08:34:03.457Z,16.50
2023-05-09T08:36:32.491Z,16.40
2023-05-09T08:39:00.619Z,16.40
2023-05-09T08:41:28.942Z,16.50
2023-05-09T08:43:57.371Z,16.50
2023-05-09T08:46:32.330Z,16.50
2023-05-09T08:49:01.534Z,16.50
2023-05-09T08:51:32.223Z,16.50
2023-05-09T08:54:00.870Z,16.50
2023-05-09T08:56:29.773Z,16.50
2023-05-09T08:58:58.174Z,16.50
2023-05-09T09:01:28.771Z,16.50
2023-05-09T09:03:57.614Z,16.50
2023-05-09T09:06:26.250Z,16.50
2023-05-09T09:08:57.042Z,16.50
2023-05-09T09:11:25.187Z,16.50
2023-05-09T09:13:54.806Z,16.50
2023-05-09T09:16:25.048Z,16.50
2023-05-09T09:18:58.578Z,16.50
2023-05-09T09:21:27.434Z,16.50
2023-05-09T09:23:57.036Z,16.50
2023-05-09T09:26:29.213Z,16.50
2023-05-09T09:28:58.024Z,16.50
2023-05-09T09:31:27.609Z,16.50
2023-05-09T09:34:01.987Z,16.50
2023-05-09T09:36:32.335Z,16.50
2023-05-09T09:39:01.704Z,16.50
2023-05-09T09:41:32.697Z,16.50
2023-05-09T09:44:00.750Z,16.50
2023-05-09T09:46:28.916Z,16.50
2023-05-09T09:48:57.915Z,16.50
2023-05-09T09:51:30.243Z,16.50
2023-05-09T09:53:58.220Z,16.50
2023-05-09T09:56:40.401Z,16.50
2023-05-09T09:59:10.741Z,16.50
2023-05-09T10:01:58.104Z,16.50
2023-05-09T10:04:31.641Z,16.50
2023-05-09T10:07:03.446Z,16.50
2023-05-09T10:09:31.879Z,16.50
2023-05-09T10:12:07.184Z,16.50
2023-05-09T10:14:37.619Z,16.50
2023-05-09T10:17:06.881Z,16.50
2023-05-09T10:19:37.197Z,16.50
2023-05-09T10:22:10.112Z,16.50
2023-05-09T10:24:43.154Z,16.50
2023-05-09T10:27:12.876Z,16.50
2023-05-09T10:29:46.098Z,16.50
2023-05-09T10:32:24.504Z,16.50
2023-05-09T10:34:56.039Z,16.50
2023-05-09T10:37:26.709Z,16.50
2023-05-09T10:39:56.111Z,16.50
2023-05-09T10:42:25.268Z,16.50
2023-05-09T10:44:54.672Z,16.50
2023-05-09T10:47:23.306Z,16.50
2023-05-09T10:49:51.514Z,16.50
2023-05-09T10:52:22.355Z,16.50
2023-05-09T10:55:01.940Z,16.50
2023-05-09T10:57:31.279Z,16.50
2023-05-09T11:00:00.463Z,16.40
2023-05-09T11:02:30.891Z,16.40
2023-05-09T11:05:15.350Z,16.40
2023-05-09T11:07:44.267Z,16.40
2023-05-09T11:10:18.635Z,16.40
2023-05-09T11:12:58.146Z,16.40
2023-05-09T11:15:27.860Z,16.40
2023-05-09T11:18:07.732Z,16.40
2023-05-09T11:20:36.926Z,16.40
2023-05-09T11:23:06.898Z,16.40
2023-05-09T11:25:39.660Z,16.40
2023-05-09T11:28:07.944Z,16.50
2023-05-09T11:30:41.896Z,16.40
2023-05-09T11:33:23.876Z,16.40
2023-05-09T11:36:16.679Z,16.40
2023-05-09T11:38:45.052Z,16.40
2023-05-09T11:41:14.884Z,16.40
2023-05-09T11:43:45.804Z,16.40
2023-05-09T11:46:13.952Z,16.40
2023-05-09T11:48:43.019Z,16.40
2023-05-09T11:51:18.942Z,16.40
2023-05-09T11:53:48.061Z,16.40
2023-05-09T11:56:18.338Z,16.40
2023-05-09T11:58:46.827Z,16.40
2023-05-09T12:01:14.981Z,16.40
2023-05-09T12:03:45.109Z,16.40
2023-05-09T12:06:17.431Z,16.30
2023-05-09T12:08:46.402Z,16.40
2023-05-09T12:11:15.577Z,16.30
2023-05-09T12:13:48.729Z,16.30
2023-05-09T12:16:18.276Z,16.30
2023-05-09T12:18:47.789Z,16.30
2023-05-09T12:21:16.313Z,16.30
2023-05-09T12:23:44.285Z,16.30
2023-05-09T12:26:12.573Z,16.30
2023-05-09T12:28:40.918Z,16.30
2023-05-09T12:31:11.700Z,16.30
2023-05-09T12:33:40.251Z,16.30
2023-05-09T12:36:11.194Z,16.30
2023-05-09T12:38:39.686Z,16.30
2023-05-09T12:41:18.782Z,16.20
2023-05-09T12:43:58.363Z,16.20
2023-05-09T12:46:27.842Z,16.20
2023-05-09T12:48:56.435Z,16.20
2023-05-09T12:51:25.022Z,16.20
2023-05-09T12:53:54.030Z,16.20
2023-05-09T12:56:23.645Z,16.20
2023-05-09T12:58:53.068Z,16.20
2023-05-09T13:01:22.149Z,16.20
2023-05-09T13:04:02.417Z,16.20
2023-05-09T13:06:30.799Z,16.20
2023-05-09T13:09:01.547Z,16.20
2023-05-09T13:11:30.671Z,16.20
2023-05-09T13:13:59.544Z,16.20
2023-05-09T13:16:27.952Z,16.20
2023-05-09T13:18:58.498Z,16.20
2023-05-09T13:21:26.586Z,16.20
2023-05-09T13:23:54.791Z,16.30
2023-05-09T13:26:22.842Z,16.30
2023-05-09T13:28:51.324Z,16.30
2023-05-09T13:31:20.344Z,16.30
2023-05-09T13:33:50.004Z,16.30
2023-05-09T13:36:21.236Z,16.30
2023-05-09T13:38:49.282Z,16.30
2023-05-09T13:41:20.756Z,16.30
2023-05-09T13:43:49.142Z,16.30
2023-05-09T13:46:17.207Z,16.30
2023-05-09T13:48:45.405Z,16.40
2023-05-09T13:51:13.969Z,16.30
2023-05-09T13:53:43.311Z,16.40
2023-05-09T13:56:11.724Z,16.30
2023-05-09T13:58:39.754Z,16.30
2023-05-09T14:01:07.953Z,16.30
2023-05-09T14:03:36.331Z,16.30
2023-05-09T14:06:04.961Z,16.30
2023-05-09T14:08:33.147Z,16.30
2023-05-09T14:11:04.138Z,16.30
2023-05-09T14:13:32.675Z,16.20
2023-05-09T14:16:00.856Z,16.20
2023-05-09T14:18:28.857Z,16.20
2023-05-09T14:20:57.368Z,16.20
2023-05-09T14:23:25.411Z,16.20
2023-05-09T14:25:53.589Z,16.20
2023-05-09T14:28:23.263Z,16.20
2023-05-09T14:30:51.320Z,16.20
2023-05-09T14:33:19.516Z,16.20
2023-05-09T14:35:47.528Z,16.20
2023-05-09T14:38:15.511Z,16.20
2023-05-09T14:40:43.575Z,16.20
2023-05-09T14:43:11.656Z,16.20
2023-05-09T14:45:41.012Z,16.20
2023-05-09T14:48:09.152Z,16.30
2023-05-09T14:50:37.241Z,16.20
2023-05-09T14:53:05.523Z,16.20
2023-05-09T14:55:33.503Z,16.30
2023-05-09T14:58:01.764Z,16.20
2023-05-09T15:00:30.107Z,16.20
2023-05-09T15:02:59.659Z,16.30
2023-05-09T15:05:27.798Z,16.30
2023-05-09T15:07:55.721Z,16.30
2023-05-09T15:10:23.920Z,16.30
2023-05-09T15:12:51.898Z,16.30
2023-05-09T15:15:23.281Z,16.30
2023-05-09T15:17:51.928Z,16.30
2023-05-09T15:20:21.347Z,16.30
2023-05-09T15:22:50.826Z,16.30
2023-05-09T15:25:19.991Z,16.30
2023-05-09T15:27:50.294Z,16.30
2023-05-09T15:30:18.652Z,16.30
2023-05-09T15:32:46.896Z,16.30
2023-05-09T15:35:15.850Z,16.30
2023-05-09T15:37:45.599Z,16.30
2023-05-09T15:40:14.156Z,16.30
2023-05-09T15:42:42.324Z,16.30
2023-05-09T15:45:10.622Z,16.20
2023-05-09T15:47:38.845Z,16.20
2023-05-09T15:50:08.258Z,16.10
2023-05-09T15:52:36.383Z,16.10
2023-05-09T15:55:06.761Z,16.10
2023-05-09T15:57:35.398Z,16.10
2023-05-09T16:00:05.517Z,16.10
2023-05-09T16:02:33.681Z,16.00
2023-05-09T16:05:02.034Z,16.00
2023-05-09T16:07:30.082Z,16.00
2023-05-09T16:09:58.056Z,16.00
2023-05-09T16:12:28.409Z,16.00
2023-05-09T16:14:56.476Z,16.00
2023-05-09T16:17:24.447Z,15.90
2023-05-09T16:19:52.443Z,15.90
2023-05-09T16:22:20.602Z,15.90
2023-05-09T16:24:49.111Z,15.90
2023-05-09T16:27:17.307Z,15.90
2023-05-09T16:29:46.787Z,15.90
2023-05-09T16:32:14.828Z,16.00
2023-05-09T16:34:42.868Z,16.00
2023-05-09T16:37:10.821Z,15.90
2023-05-09T16:39:38.799Z,15.90
2023-05-09T16:42:06.840Z,15.90
2023-05-09T16:44:35.142Z,15.90
2023-05-09T16:47:04.685Z,15.90
2023-05-09T16:49:32.699Z,16.00
2023-05-09T16:52:00.682Z,15.90
2023-05-09T16:54:28.751Z,15.90
2023-05-09T16:56:56.763Z,15.90
2023-05-09T16:59:24.768Z,15.80
2023-05-09T17:01:53.825Z,15.80
2023-05-09T17:04:24.019Z,15.80
2023-05-09T17:06:53.257Z,15.80
2023-05-09T17:09:21.226Z,15.80
2023-05-09T17:11:49.321Z,15.80
2023-05-09T17:14:17.327Z,15.80
2023-05-09T17:16:45.812Z,15.80
2023-05-09T17:19:13.894Z,15.80
2023-05-09T17:21:43.284Z,15.80
2023-05-09T17:24:11.411Z,15.80
2023-05-09T17:26:39.777Z,15.80
2023-05-09T17:29:07.739Z,15.70
2023-05-09T17:31:35.909Z,15.70
2023-05-09T17:34:04.268Z,15.70
2023-05-09T17:36:33.487Z,15.70
2023-05-09T17:39:03.052Z,15.70
2023-05-09T17:41:31.083Z,15.70
2023-05-09T17:43:59.041Z,15.70
2023-05-09T17:46:27.317Z,15.70
2023-05-09T17:48:55.305Z,15.70
2023-05-09T17:51:23.316Z,15.70
2023-05-09T17:53:52.747Z,15.70
2023-05-09T17:56:22.419Z,15.70
2023-05-09T17:58:53.083Z,15.60
2023-05-09T18:01:21.501Z,15.70
2023-05-09T18:03:49.598Z,15.70
2023-05-09T18:06:18.333Z,15.60
2023-05-09T18:08:46.348Z,15.60
2023-05-09T18:11:14.311Z,15.70
2023-05-09T18:14:08.737Z,15.60
2023-05-09T18:16:59.191Z,15.70
2023-05-09T18:19:28.790Z,15.60
2023-05-09T18:21:56.909Z,15.60
2023-05-09T18:24:25.265Z,15.70
2023-05-09T18:26:54.783Z,15.60
2023-05-09T18:29:24.740Z,15.60
2023-05-09T18:31:53.272Z,15.70
2023-05-09T18:34:22.836Z,15.60
2023-05-09T18:36:52.719Z,15.70
2023-05-09T18:39:21.098Z,15.70
2023-05-09T18:41:51.578Z,15.70
2023-05-09T18:44:19.690Z,15.70
2023-05-09T18:46:51.860Z,15.70
2023-05-09T18:49:20.572Z,15.70
2023-05-09T18:51:48.876Z,15.70
2023-05-09T18:54:38.448Z,15.80
2023-05-09T18:57:10.779Z,15.80
2023-05-09T18:59:39.186Z,15.80
2023-05-09T19:02:12.912Z,15.80
2023-05-09T19:05:06.047Z,15.80
2023-05-09T19:07:37.226Z,15.80
2023-05-09T19:10:10.818Z,15.80
2023-05-09T19:12:39.812Z,15.80
2023-05-09T19:15:08.994Z,15.80
2023-05-09T19:17:39.345Z,15.80
2023-05-09T19:20:09.690Z,15.70
2023-05-09T19:22:44.287Z,15.70
2023-05-09T19:25:19.224Z,15.70
2023-05-09T19:27:48.382Z,15.70
2023-05-09T19:30:17.489Z,15.70
2023-05-09T19:32:47.485Z,15.70
2023-05-09T19:35:17.341Z,15.70
2023-05-09T19:37:45.861Z,15.70
2023-05-09T19:40:16.314Z,15.70
2023-05-09T19:42:45.761Z,15.70
2023-05-09T19:45:17.986Z,15.70
2023-05-09T19:47:51.726Z,15.70
2023-05-09T19:50:20.430Z,15.70
2023-05-09T19:52:48.470Z,15.70
2023-05-09T19:55:16.919Z,15.70
2023-05-09T19:58:09.992Z,15.70
2023-05-09T20:00:39.526Z,15.70
2023-05-09T20:03:11.497Z,15.60
2023-05-09T20:05:43.241Z,15.60
2023-05-09T20:08:11.707Z,15.60
2023-05-09T20:10:40.778Z,15.60
2023-05-09T20:13:10.631Z,15.60
2023-05-09T20:15:39.894Z,15.60
2023-05-09T20:18:09.542Z,15.60
2023-05-09T20:20:38.283Z,15.60
2023-05-09T20:23:06.572Z,15.60
2023-05-09T20:25:34.991Z,15.60
2023-05-09T20:28:03.059Z,15.60
2023-05-09T20:30:32.071Z,15.60
2023-05-09T20:33:01.110Z,15.60
2023-05-09T20:35:30.654Z,15.60
2023-05-09T20:38:00.658Z,15.60
2023-05-09T20:40:30.738Z,15.60
2023-05-09T20:43:00.251Z,15.70
2023-05-09T20:45:29.022Z,15.70
2023-05-09T20:48:17.694Z,15.70
2023-05-09T20:50:49.726Z,15.70
2023-05-09T20:53:27.862Z,15.70
2023-05-09T20:56:01.387Z,15.70
2023-05-09T20:58:32.908Z,15.60
2023-05-09T21:01:00.936Z,15.60
2023-05-09T21:03:29.658Z,15.60
2023-05-09T21:05:59.804Z,15.60
2023-05-09T21:08:30.150Z,15.70
2023-05-09T21:10:58.532Z,15.60
2023-05-09T21:13:34.880Z,15.60
2023-05-09T21:16:06.369Z,15.60
2023-05-09T21:18:37.308Z,15.60
2023-05-09T21:21:10.125Z,15.60
2023-05-09T21:23:40.444Z,15.60
2023-05-09T21:26:10.837Z,15.50
2023-05-09T21:28:39.121Z,15.50
2023-05-09T21:31:09.727Z,15.50
2023-05-09T21:33:40.088Z,15.50
2023-05-09T21:36:12.049Z,15.50
2023-05-09T21:38:46.060Z,15.50
2023-05-09T21:41:14.057Z,15.50
2023-05-09T21:43:42.082Z,15.50
2023-05-09T21:46:10.563Z,15.50
2023-05-09T21:48:38.685Z,15.40
2023-05-09T21:51:09.804Z,15.40
2023-05-09T21:53:39.643Z,15.40
2023-05-09T21:56:11.437Z,15.40
2023-05-09T21:58:39.643Z,15.40
2023-05-09T22:01:08.924Z,15.40
2023-05-09T22:03:37.313Z,15.40
2023-05-09T22:06:07.005Z,15.40
2023-05-09T22:08:35.258Z,15.40
2023-05-09T22:11:04.934Z,15.30
2023-05-09T22:13:35.715Z,15.30
2023-05-09T22:16:04.742Z,15.30
2023-05-09T22:18:54.361Z,15.30
2023-05-09T22:21:23.354Z,15.30
2023-05-09T22:23:51.830Z,15.20
2023-05-09T22:26:21.315Z,15.20
2023-05-09T22:29:09.338Z,15.20
2023-05-09T22:31:39.308Z,15.20
2023-05-09T22:34:33.110Z,15.20
2023-05-09T22:37:23.916Z,15.20
2023-05-09T22:39:52.555Z,15.10
2023-05-09T22:42:23.314Z,15.10
2023-05-09T22:44:52.763Z,15.10
2023-05-09T22:47:20.935Z,15.00
2023-05-09T22:49:50.192Z,15.00
2023-05-09T22:52:20.814Z,15.00
2023-05-09T22:54:49.205Z,15.00
2023-05-09T22:57:20.569Z,15.00
2023-05-09T22:59:50.067Z,15.00
2023-05-09T23:02:19.601Z,15.00
2023-05-09T23:04:47.969Z,15.00
2023-05-09T23:07:16.262Z,14.90
2023-05-09T23:09:53.306Z,14.90
2023-05-09T23:12:21.525Z,14.90
2023-05-09T23:14:52.169Z,14.90
2023-05-09T23:17:22.586Z,14.90
2023-05-09T23:19:53.449Z,14.80
2023-05-09T23:22:23.156Z,14.80
2023-05-09T23:24:52.350Z,14.80
2023-05-09T23:27:22.786Z,14.80
2023-05-09T23:29:52.672Z,14.70
2023-05-09T23:32:24.251Z,14.70
2023-05-09T23:34:52.762Z,14.80
2023-05-09T23:37:21.160Z,14.70
2023-05-09T23:39:51.117Z,14.70
2023-05-09T23:42:19.956Z,14.70
2023-05-09T23:45:11.117Z,14.70
2023-05-09T23:47:39.156Z,14.70
2023-05-09T23:50:08.681Z,14.70
2023-05-09T23:52:38.836Z,14.70
2023-05-09T23:55:08.250Z,14.70
2023-05-09T23:57:37.260Z,14.60
